sensor_id;sensor_type;location;lat;lon;timestamp;temperature;humidity
4312;DHT22;2169;49.086;9.284;2023-08-21T00:01:51;25.70;62.30
4312;DHT22;2169;49.086;9.284;2023-08-21T00:04:17;25.70;62.40
4312;DHT22;2169;49.086;9.284;2023-08-21T00:06:45;25.60;62.30
4312;DHT22;2169;49.086;9.284;2023-08-21T00:09:13;25.60;62.40
4312;DHT22;2169;49.086;9.284;2023-08-21T00:11:42;25.60;62.50
4312;DHT22;2169;49.086;9.284;2023-08-21T00:14:13;25.50;62.50
4312;DHT22;2169;49.086;9.284;2023-08-21T00:16:40;25.50;62.60
4312;DHT22;2169;49.086;9.284;2023-08-21T00:19:07;25.50;62.70
4312;DHT22;2169;49.086;9.284;2023-08-21T00:21:34;25.50;62.80
4312;DHT22;2169;49.086;9.284;2023-08-21T00:24:00;25.40;62.70
4312;DHT22;2169;49.086;9.284;2023-08-21T00:26:29;25.40;62.80
4312;DHT22;2169;49.086;9.284;2023-08-21T00:28:59;25.30;62.90
4312;DHT22;2169;49.086;9.284;2023-08-21T00:31:26;25.30;63.10
4312;DHT22;2169;49.086;9.284;2023-08-21T00:33:53;25.20;63.10
4312;DHT22;2169;49.086;9.284;2023-08-21T00:36:20;25.20;63.30
4312;DHT22;2169;49.086;9.284;2023-08-21T00:38:47;25.20;63.30
4312;DHT22;2169;49.086;9.284;2023-08-21T00:41:14;25.10;63.30
4312;DHT22;2169;49.086;9.284;2023-08-21T00:43:41;25.10;63.50
4312;DHT22;2169;49.086;9.284;2023-08-21T00:46:10;25.00;63.60
4312;DHT22;2169;49.086;9.284;2023-08-21T00:48:39;25.00;63.70
4312;DHT22;2169;49.086;9.284;2023-08-21T00:51:06;25.00;63.80
4312;DHT22;2169;49.086;9.284;2023-08-21T00:53:34;24.90;63.80
4312;DHT22;2169;49.086;9.284;2023-08-21T00:56:01;24.90;63.90
4312;DHT22;2169;49.086;9.284;2023-08-21T00:58:28;24.90;64.00
4312;DHT22;2169;49.086;9.284;2023-08-21T01:00:55;24.80;64.00
4312;DHT22;2169;49.086;9.284;2023-08-21T01:03:24;24.80;64.10
4312;DHT22;2169;49.086;9.284;2023-08-21T01:05:52;24.80;64.10
4312;DHT22;2169;49.086;9.284;2023-08-21T01:08:25;24.80;64.20
4312;DHT22;2169;49.086;9.284;2023-08-21T01:10:59;24.80;64.30
4312;DHT22;2169;49.086;9.284;2023-08-21T01:13:34;24.70;64.30
4312;DHT22;2169;49.086;9.284;2023-08-21T01:16:05;24.70;64.40
4312;DHT22;2169;49.086;9.284;2023-08-21T01:18:34;24.70;64.40
4312;DHT22;2169;49.086;9.284;2023-08-21T01:21:04;24.60;64.50
4312;DHT22;2169;49.086;9.284;2023-08-21T01:23:36;24.60;64.50
4312;DHT22;2169;49.086;9.284;2023-08-21T01:26:04;24.50;64.40
4312;DHT22;2169;49.086;9.284;2023-08-21T01:28:33;24.50;64.60
4312;DHT22;2169;49.086;9.284;2023-08-21T01:31:05;24.40;64.60
4312;DHT22;2169;49.086;9.284;2023-08-21T01:33:37;24.40;64.80
4312;DHT22;2169;49.086;9.284;2023-08-21T01:36:07;24.40;64.80
4312;DHT22;2169;49.086;9.284;2023-08-21T01:38:35;24.40;64.90
4312;DHT22;2169;49.086;9.284;2023-08-21T01:41:02;24.30;64.90
4312;DHT22;2169;49.086;9.284;2023-08-21T01:43:29;24.30;65.00
4312;DHT22;2169;49.086;9.284;2023-08-21T01:45:56;24.30;65.20
4312;DHT22;2169;49.086;9.284;2023-08-21T01:48:23;24.30;65.40
4312;DHT22;2169;49.086;9.284;2023-08-21T01:50:50;24.20;65.30
4312;DHT22;2169;49.086;9.284;2023-08-21T01:53:17;24.20;65.30
4312;DHT22;2169;49.086;9.284;2023-08-21T01:55:46;24.20;65.40
4312;DHT22;2169;49.086;9.284;2023-08-21T01:58:13;24.20;65.40
4312;DHT22;2169;49.086;9.284;2023-08-21T02:00:40;24.10;65.40
4312;DHT22;2169;49.086;9.284;2023-08-21T02:03:10;24.10;65.50
4312;DHT22;2169;49.086;9.284;2023-08-21T02:05:38;24.10;65.60
4312;DHT22;2169;49.086;9.284;2023-08-21T02:08:05;24.10;65.60
4312;DHT22;2169;49.086;9.284;2023-08-21T02:10:33;24.10;65.60
4312;DHT22;2169;49.086;9.284;2023-08-21T02:13:01;24.00;65.70
4312;DHT22;2169;49.086;9.284;2023-08-21T02:15:28;24.00;65.80
4312;DHT22;2169;49.086;9.284;2023-08-21T02:17:55;24.00;65.90
4312;DHT22;2169;49.086;9.284;2023-08-21T02:20:22;23.90;65.90
4312;DHT22;2169;49.086;9.284;2023-08-21T02:22:49;23.90;66.00
4312;DHT22;2169;49.086;9.284;2023-08-21T02:25:16;23.90;66.10
4312;DHT22;2169;49.086;9.284;2023-08-21T02:27:42;23.90;66.20
4312;DHT22;2169;49.086;9.284;2023-08-21T02:30:12;23.90;66.20
4312;DHT22;2169;49.086;9.284;2023-08-21T02:32:39;23.80;66.30
4312;DHT22;2169;49.086;9.284;2023-08-21T02:35:07;23.80;66.30
4312;DHT22;2169;49.086;9.284;2023-08-21T02:37:34;23.80;66.40
4312;DHT22;2169;49.086;9.284;2023-08-21T02:40:06;23.70;66.40
4312;DHT22;2169;49.086;9.284;2023-08-21T02:42:35;23.70;66.40
4312;DHT22;2169;49.086;9.284;2023-08-21T02:45:02;23.70;66.50
4312;DHT22;2169;49.086;9.284;2023-08-21T02:47:35;23.70;66.60
4312;DHT22;2169;49.086;9.284;2023-08-21T02:50:03;23.70;66.60
4312;DHT22;2169;49.086;9.284;2023-08-21T02:52:31;23.60;66.60
4312;DHT22;2169;49.086;9.284;2023-08-21T02:54:58;23.60;66.60
4312;DHT22;2169;49.086;9.284;2023-08-21T02:57:25;23.60;66.60
4312;DHT22;2169;49.086;9.284;2023-08-21T02:59:52;23.60;66.80
4312;DHT22;2169;49.086;9.284;2023-08-21T03:02:19;23.60;66.90
4312;DHT22;2169;49.086;9.284;2023-08-21T03:04:48;23.60;67.20
4312;DHT22;2169;49.086;9.284;2023-08-21T03:07:15;23.60;67.20
4312;DHT22;2169;49.086;9.284;2023-08-21T03:09:45;23.50;67.00
4312;DHT22;2169;49.086;9.284;2023-08-21T03:12:18;23.50;67.10
4312;DHT22;2169;49.086;9.284;2023-08-21T03:14:46;23.50;67.10
4312;DHT22;2169;49.086;9.284;2023-08-21T03:17:13;23.50;67.20
4312;DHT22;2169;49.086;9.284;2023-08-21T03:19:40;23.40;67.10
4312;DHT22;2169;49.086;9.284;2023-08-21T03:22:08;23.40;67.20
4312;DHT22;2169;49.086;9.284;2023-08-21T03:24:35;23.40;67.30
4312;DHT22;2169;49.086;9.284;2023-08-21T03:27:02;23.30;67.20
4312;DHT22;2169;49.086;9.284;2023-08-21T03:29:31;23.30;67.30
4312;DHT22;2169;49.086;9.284;2023-08-21T03:31:58;23.30;67.40
4312;DHT22;2169;49.086;9.284;2023-08-21T03:34:25;23.30;67.50
4312;DHT22;2169;49.086;9.284;2023-08-21T03:36:52;23.20;67.40
4312;DHT22;2169;49.086;9.284;2023-08-21T03:39:23;23.20;68.10
4312;DHT22;2169;49.086;9.284;2023-08-21T03:41:49;23.20;67.50
4312;DHT22;2169;49.086;9.284;2023-08-21T03:44:16;23.20;67.50
4312;DHT22;2169;49.086;9.284;2023-08-21T03:46:43;23.10;67.50
4312;DHT22;2169;49.086;9.284;2023-08-21T03:49:10;23.10;67.50
4312;DHT22;2169;49.086;9.284;2023-08-21T03:51:38;23.10;67.60
4312;DHT22;2169;49.086;9.284;2023-08-21T03:54:05;23.10;67.70
4312;DHT22;2169;49.086;9.284;2023-08-21T03:56:33;23.10;67.70
4312;DHT22;2169;49.086;9.284;2023-08-21T03:59:00;23.10;67.70
4312;DHT22;2169;49.086;9.284;2023-08-21T04:01:29;23.00;67.70
4312;DHT22;2169;49.086;9.284;2023-08-21T04:03:56;23.00;67.80
4312;DHT22;2169;49.086;9.284;2023-08-21T04:06:25;23.00;67.80
4312;DHT22;2169;49.086;9.284;2023-08-21T04:08:52;23.00;67.90
4312;DHT22;2169;49.086;9.284;2023-08-21T04:11:19;22.90;67.80
4312;DHT22;2169;49.086;9.284;2023-08-21T04:13:48;22.90;67.90
4312;DHT22;2169;49.086;9.284;2023-08-21T04:16:15;22.90;68.10
4312;DHT22;2169;49.086;9.284;2023-08-21T04:18:47;22.80;68.10
4312;DHT22;2169;49.086;9.284;2023-08-21T04:21:14;22.80;68.20
4312;DHT22;2169;49.086;9.284;2023-08-21T04:23:43;22.80;68.30
4312;DHT22;2169;49.086;9.284;2023-08-21T04:26:10;22.80;68.30
4312;DHT22;2169;49.086;9.284;2023-08-21T04:28:37;22.80;68.30
4312;DHT22;2169;49.086;9.284;2023-08-21T04:31:08;22.80;68.40
4312;DHT22;2169;49.086;9.284;2023-08-21T04:33:36;22.80;68.40
4312;DHT22;2169;49.086;9.284;2023-08-21T04:36:04;22.70;68.40
4312;DHT22;2169;49.086;9.284;2023-08-21T04:38:33;22.70;68.50
4312;DHT22;2169;49.086;9.284;2023-08-21T04:41:09;22.70;68.60
4312;DHT22;2169;49.086;9.284;2023-08-21T04:43:37;22.70;68.60
4312;DHT22;2169;49.086;9.284;2023-08-21T04:46:09;22.70;68.70
4312;DHT22;2169;49.086;9.284;2023-08-21T04:48:37;22.70;68.70
4312;DHT22;2169;49.086;9.284;2023-08-21T04:51:04;22.70;68.70
4312;DHT22;2169;49.086;9.284;2023-08-21T04:53:31;22.60;68.60
4312;DHT22;2169;49.086;9.284;2023-08-21T04:56:03;22.60;68.70
4312;DHT22;2169;49.086;9.284;2023-08-21T04:58:30;22.60;68.80
4312;DHT22;2169;49.086;9.284;2023-08-21T05:00:57;22.60;68.80
4312;DHT22;2169;49.086;9.284;2023-08-21T05:03:26;22.60;68.90
4312;DHT22;2169;49.086;9.284;2023-08-21T05:05:53;22.60;69.10
4312;DHT22;2169;49.086;9.284;2023-08-21T05:08:22;22.60;69.10
4312;DHT22;2169;49.086;9.284;2023-08-21T05:10:54;22.60;69.20
4312;DHT22;2169;49.086;9.284;2023-08-21T05:13:22;22.60;69.30
4312;DHT22;2169;49.086;9.284;2023-08-21T05:15:52;22.50;69.20
4312;DHT22;2169;49.086;9.284;2023-08-21T05:18:21;22.50;69.30
4312;DHT22;2169;49.086;9.284;2023-08-21T05:20:50;22.50;69.40
4312;DHT22;2169;49.086;9.284;2023-08-21T05:23:17;22.50;69.40
4312;DHT22;2169;49.086;9.284;2023-08-21T05:25:45;22.50;69.50
4312;DHT22;2169;49.086;9.284;2023-08-21T05:28:12;22.50;69.70
4312;DHT22;2169;49.086;9.284;2023-08-21T05:30:38;22.60;69.80
4312;DHT22;2169;49.086;9.284;2023-08-21T05:33:06;22.50;69.80
4312;DHT22;2169;49.086;9.284;2023-08-21T05:35:33;22.60;70.00
4312;DHT22;2169;49.086;9.284;2023-08-21T05:38:03;22.60;70.00
4312;DHT22;2169;49.086;9.284;2023-08-21T05:40:30;22.60;70.20
4312;DHT22;2169;49.086;9.284;2023-08-21T05:42:57;22.60;70.20
4312;DHT22;2169;49.086;9.284;2023-08-21T05:45:27;22.60;70.30
4312;DHT22;2169;49.086;9.284;2023-08-21T05:47:55;22.70;70.40
4312;DHT22;2169;49.086;9.284;2023-08-21T05:50:22;22.70;70.50
4312;DHT22;2169;49.086;9.284;2023-08-21T05:52:49;22.70;70.60
4312;DHT22;2169;49.086;9.284;2023-08-21T05:55:21;22.70;70.70
4312;DHT22;2169;49.086;9.284;2023-08-21T05:57:48;22.80;70.80
4312;DHT22;2169;49.086;9.284;2023-08-21T06:00:17;22.80;70.80
4312;DHT22;2169;49.086;9.284;2023-08-21T06:02:44;22.90;70.90
4312;DHT22;2169;49.086;9.284;2023-08-21T06:05:10;22.90;70.90
4312;DHT22;2169;49.086;9.284;2023-08-21T06:07:38;23.00;71.10
4312;DHT22;2169;49.086;9.284;2023-08-21T06:10:06;23.00;71.10
4312;DHT22;2169;49.086;9.284;2023-08-21T06:12:35;23.10;71.20
4312;DHT22;2169;49.086;9.284;2023-08-21T06:15:02;23.10;71.10
4312;DHT22;2169;49.086;9.284;2023-08-21T06:17:29;23.20;71.20
4312;DHT22;2169;49.086;9.284;2023-08-21T06:19:56;23.20;71.20
4312;DHT22;2169;49.086;9.284;2023-08-21T06:22:27;23.30;71.20
4312;DHT22;2169;49.086;9.284;2023-08-21T06:24:54;23.30;71.30
4312;DHT22;2169;49.086;9.284;2023-08-21T06:27:21;23.40;71.30
4312;DHT22;2169;49.086;9.284;2023-08-21T06:29:50;23.40;72.00
4312;DHT22;2169;49.086;9.284;2023-08-21T06:32:16;23.50;71.30
4312;DHT22;2169;49.086;9.284;2023-08-21T06:34:43;23.60;71.30
4312;DHT22;2169;49.086;9.284;2023-08-21T06:37:10;23.70;71.40
4312;DHT22;2169;49.086;9.284;2023-08-21T06:39:38;23.70;71.30
4312;DHT22;2169;49.086;9.284;2023-08-21T06:42:05;23.90;71.50
4312;DHT22;2169;49.086;9.284;2023-08-21T06:44:32;24.00;71.50
4312;DHT22;2169;49.086;9.284;2023-08-21T06:47:00;24.10;71.50
4312;DHT22;2169;49.086;9.284;2023-08-21T06:49:27;24.20;71.50
4312;DHT22;2169;49.086;9.284;2023-08-21T06:51:54;24.30;71.40
4312;DHT22;2169;49.086;9.284;2023-08-21T06:54:21;24.40;71.40
4312;DHT22;2169;49.086;9.284;2023-08-21T06:56:48;24.60;71.50
4312;DHT22;2169;49.086;9.284;2023-08-21T06:59:15;24.70;71.40
4312;DHT22;2169;49.086;9.284;2023-08-21T07:01:42;24.90;71.50
4312;DHT22;2169;49.086;9.284;2023-08-21T07:04:11;25.00;71.40
4312;DHT22;2169;49.086;9.284;2023-08-21T07:06:39;25.20;71.20
4312;DHT22;2169;49.086;9.284;2023-08-21T07:09:06;25.40;71.10
4312;DHT22;2169;49.086;9.284;2023-08-21T07:11:33;25.50;70.90
4312;DHT22;2169;49.086;9.284;2023-08-21T07:14:00;25.70;70.60
4312;DHT22;2169;49.086;9.284;2023-08-21T07:16:27;25.90;70.40
4312;DHT22;2169;49.086;9.284;2023-08-21T07:18:54;26.10;70.20
4312;DHT22;2169;49.086;9.284;2023-08-21T07:21:24;26.30;69.80
4312;DHT22;2169;49.086;9.284;2023-08-21T07:23:50;26.50;69.50
4312;DHT22;2169;49.086;9.284;2023-08-21T07:26:18;26.60;69.10
4312;DHT22;2169;49.086;9.284;2023-08-21T07:28:45;26.90;68.90
4312;DHT22;2169;49.086;9.284;2023-08-21T07:31:12;27.00;68.30
4312;DHT22;2169;49.086;9.284;2023-08-21T07:33:39;27.20;67.90
4312;DHT22;2169;49.086;9.284;2023-08-21T07:36:06;27.40;67.50
4312;DHT22;2169;49.086;9.284;2023-08-21T07:38:35;27.60;67.10
4312;DHT22;2169;49.086;9.284;2023-08-21T07:41:02;27.80;66.60
4312;DHT22;2169;49.086;9.284;2023-08-21T07:43:30;28.00;66.30
4312;DHT22;2169;49.086;9.284;2023-08-21T07:46:02;28.10;65.80
4312;DHT22;2169;49.086;9.284;2023-08-21T07:48:30;28.40;65.30
4312;DHT22;2169;49.086;9.284;2023-08-21T07:50:57;28.60;65.00
4312;DHT22;2169;49.086;9.284;2023-08-21T07:53:24;28.80;64.50
4312;DHT22;2169;49.086;9.284;2023-08-21T07:55:53;29.00;64.00
4312;DHT22;2169;49.086;9.284;2023-08-21T07:58:20;29.20;63.50
4312;DHT22;2169;49.086;9.284;2023-08-21T08:00:48;29.30;63.10
4312;DHT22;2169;49.086;9.284;2023-08-21T08:03:15;29.50;62.60
4312;DHT22;2169;49.086;9.284;2023-08-21T08:05:42;29.70;62.30
4312;DHT22;2169;49.086;9.284;2023-08-21T08:08:09;29.90;61.90
4312;DHT22;2169;49.086;9.284;2023-08-21T08:10:37;30.00;61.50
4312;DHT22;2169;49.086;9.284;2023-08-21T08:13:08;30.20;61.10
4312;DHT22;2169;49.086;9.284;2023-08-21T08:15:34;30.30;60.70
4312;DHT22;2169;49.086;9.284;2023-08-21T08:18:02;30.50;60.40
4312;DHT22;2169;49.086;9.284;2023-08-21T08:20:29;30.60;60.00
4312;DHT22;2169;49.086;9.284;2023-08-21T08:22:56;30.80;59.90
4312;DHT22;2169;49.086;9.284;2023-08-21T08:25:23;30.90;59.40
4312;DHT22;2169;49.086;9.284;2023-08-21T08:27:51;31.10;59.10
4312;DHT22;2169;49.086;9.284;2023-08-21T08:30:21;31.20;58.70
4312;DHT22;2169;49.086;9.284;2023-08-21T08:32:49;31.40;58.60
4312;DHT22;2169;49.086;9.284;2023-08-21T08:35:16;31.50;58.20
4312;DHT22;2169;49.086;9.284;2023-08-21T08:37:43;31.70;58.00
4312;DHT22;2169;49.086;9.284;2023-08-21T08:40:13;31.90;57.60
4312;DHT22;2169;49.086;9.284;2023-08-21T08:42:40;32.00;57.10
4312;DHT22;2169;49.086;9.284;2023-08-21T08:45:08;32.00;56.80
4312;DHT22;2169;49.086;9.284;2023-08-21T08:47:37;32.20;56.70
4312;DHT22;2169;49.086;9.284;2023-08-21T08:50:06;32.30;56.30
4312;DHT22;2169;49.086;9.284;2023-08-21T08:52:35;32.50;56.10
4312;DHT22;2169;49.086;9.284;2023-08-21T08:55:03;32.60;55.80
4312;DHT22;2169;49.086;9.284;2023-08-21T08:57:32;32.70;55.30
4312;DHT22;2169;49.086;9.284;2023-08-21T09:00:01;32.80;55.00
4312;DHT22;2169;49.086;9.284;2023-08-21T09:02:29;32.90;54.80
4312;DHT22;2169;49.086;9.284;2023-08-21T09:04:57;33.00;54.50
4312;DHT22;2169;49.086;9.284;2023-08-21T09:07:26;33.10;54.20
4312;DHT22;2169;49.086;9.284;2023-08-21T09:09:52;33.10;54.10
4312;DHT22;2169;49.086;9.284;2023-08-21T09:12:20;33.20;54.10
4312;DHT22;2169;49.086;9.284;2023-08-21T09:14:47;33.30;53.80
4312;DHT22;2169;49.086;9.284;2023-08-21T09:17:14;33.40;53.60
4312;DHT22;2169;49.086;9.284;2023-08-21T09:19:42;33.50;53.30
4312;DHT22;2169;49.086;9.284;2023-08-21T09:22:12;33.60;53.10
4312;DHT22;2169;49.086;9.284;2023-08-21T09:24:40;33.70;52.60
4312;DHT22;2169;49.086;9.284;2023-08-21T09:27:16;33.80;52.10
4312;DHT22;2169;49.086;9.284;2023-08-21T09:29:57;34.00;51.80
4312;DHT22;2169;49.086;9.284;2023-08-21T09:32:24;34.00;51.70
4312;DHT22;2169;49.086;9.284;2023-08-21T09:34:51;34.10;51.60
4312;DHT22;2169;49.086;9.284;2023-08-21T09:37:28;34.20;51.30
4312;DHT22;2169;49.086;9.284;2023-08-21T09:40:00;34.20;50.80
4312;DHT22;2169;49.086;9.284;2023-08-21T09:42:30;34.30;49.90
4312;DHT22;2169;49.086;9.284;2023-08-21T09:44:57;34.30;48.70
4312;DHT22;2169;49.086;9.284;2023-08-21T09:47:26;34.40;48.00
4312;DHT22;2169;49.086;9.284;2023-08-21T09:49:54;34.40;47.80
4312;DHT22;2169;49.086;9.284;2023-08-21T09:52:24;34.40;47.40
4312;DHT22;2169;49.086;9.284;2023-08-21T09:54:53;34.50;47.20
4312;DHT22;2169;49.086;9.284;2023-08-21T09:57:22;34.60;46.70
4312;DHT22;2169;49.086;9.284;2023-08-21T09:59:51;34.50;46.50
4312;DHT22;2169;49.086;9.284;2023-08-21T10:02:20;34.50;46.20
4312;DHT22;2169;49.086;9.284;2023-08-21T10:04:48;34.40;46.30
4312;DHT22;2169;49.086;9.284;2023-08-21T10:07:16;34.40;46.30
4312;DHT22;2169;49.086;9.284;2023-08-21T10:09:49;34.40;46.10
4312;DHT22;2169;49.086;9.284;2023-08-21T10:12:17;34.40;45.70
4312;DHT22;2169;49.086;9.284;2023-08-21T10:14:46;34.50;45.50
4312;DHT22;2169;49.086;9.284;2023-08-21T10:17:15;34.50;45.40
4312;DHT22;2169;49.086;9.284;2023-08-21T10:19:42;34.60;45.10
4312;DHT22;2169;49.086;9.284;2023-08-21T10:22:37;34.60;44.80
4312;DHT22;2169;49.086;9.284;2023-08-21T10:25:14;34.60;45.00
4312;DHT22;2169;49.086;9.284;2023-08-21T10:27:41;34.50;44.60
4312;DHT22;2169;49.086;9.284;2023-08-21T10:30:13;34.40;44.70
4312;DHT22;2169;49.086;9.284;2023-08-21T10:32:44;34.50;44.80
4312;DHT22;2169;49.086;9.284;2023-08-21T10:35:15;34.60;44.70
4312;DHT22;2169;49.086;9.284;2023-08-21T10:38:11;34.60;44.80
4312;DHT22;2169;49.086;9.284;2023-08-21T10:40:41;34.80;44.70
4312;DHT22;2169;49.086;9.284;2023-08-21T10:46:09;34.90;44.50
4312;DHT22;2169;49.086;9.284;2023-08-21T10:48:37;34.90;44.20
4312;DHT22;2169;49.086;9.284;2023-08-21T10:51:06;34.90;44.10
4312;DHT22;2169;49.086;9.284;2023-08-21T10:53:34;35.00;43.90
4312;DHT22;2169;49.086;9.284;2023-08-21T10:56:04;35.00;43.70
4312;DHT22;2169;49.086;9.284;2023-08-21T10:58:35;35.00;43.70
4312;DHT22;2169;49.086;9.284;2023-08-21T11:01:07;35.10;43.60
4312;DHT22;2169;49.086;9.284;2023-08-21T11:03:34;35.10;43.70
4312;DHT22;2169;49.086;9.284;2023-08-21T11:06:06;35.20;43.70
4312;DHT22;2169;49.086;9.284;2023-08-21T11:08:33;35.20;43.50
4312;DHT22;2169;49.086;9.284;2023-08-21T11:11:04;35.20;43.60
4312;DHT22;2169;49.086;9.284;2023-08-21T11:13:31;35.30;43.40
4312;DHT22;2169;49.086;9.284;2023-08-21T11:15:59;35.20;43.30
4312;DHT22;2169;49.086;9.284;2023-08-21T11:18:47;35.20;43.30
4312;DHT22;2169;49.086;9.284;2023-08-21T11:21:25;35.30;43.30
4312;DHT22;2169;49.086;9.284;2023-08-21T11:23:55;35.30;43.20
4312;DHT22;2169;49.086;9.284;2023-08-21T11:26:25;35.30;43.20
4312;DHT22;2169;49.086;9.284;2023-08-21T11:28:52;35.30;43.10
4312;DHT22;2169;49.086;9.284;2023-08-21T11:31:27;35.40;43.10
4312;DHT22;2169;49.086;9.284;2023-08-21T11:33:57;35.40;43.10
4312;DHT22;2169;49.086;9.284;2023-08-21T11:36:24;35.40;43.10
4312;DHT22;2169;49.086;9.284;2023-08-21T11:38:58;35.50;43.10
4312;DHT22;2169;49.086;9.284;2023-08-21T11:41:27;35.50;42.90
4312;DHT22;2169;49.086;9.284;2023-08-21T11:44:01;35.60;42.70
4312;DHT22;2169;49.086;9.284;2023-08-21T11:46:29;35.60;42.60
4312;DHT22;2169;49.086;9.284;2023-08-21T11:48:56;35.60;42.70
4312;DHT22;2169;49.086;9.284;2023-08-21T11:51:23;35.70;42.60
4312;DHT22;2169;49.086;9.284;2023-08-21T11:53:50;35.70;42.50
4312;DHT22;2169;49.086;9.284;2023-08-21T11:56:19;35.70;42.50
4312;DHT22;2169;49.086;9.284;2023-08-21T11:58:47;35.70;42.40
4312;DHT22;2169;49.086;9.284;2023-08-21T12:01:16;35.70;42.60
4312;DHT22;2169;49.086;9.284;2023-08-21T12:03:43;35.70;42.60
4312;DHT22;2169;49.086;9.284;2023-08-21T12:06:12;35.80;42.50
4312;DHT22;2169;49.086;9.284;2023-08-21T12:08:40;35.90;42.10
4312;DHT22;2169;49.086;9.284;2023-08-21T12:11:07;35.80;42.00
4312;DHT22;2169;49.086;9.284;2023-08-21T12:13:35;35.80;42.10
4312;DHT22;2169;49.086;9.284;2023-08-21T12:16:04;35.80;42.10
4312;DHT22;2169;49.086;9.284;2023-08-21T12:18:31;35.80;42.00
4312;DHT22;2169;49.086;9.284;2023-08-21T12:20:58;35.80;42.20
4312;DHT22;2169;49.086;9.284;2023-08-21T12:23:25;35.80;42.50
4312;DHT22;2169;49.086;9.284;2023-08-21T12:25:53;35.80;41.80
4312;DHT22;2169;49.086;9.284;2023-08-21T12:28:20;35.80;41.80
4312;DHT22;2169;49.086;9.284;2023-08-21T12:30:47;35.80;41.40
4312;DHT22;2169;49.086;9.284;2023-08-21T12:33:16;35.80;41.20
4312;DHT22;2169;49.086;9.284;2023-08-21T12:35:43;35.80;40.90
4312;DHT22;2169;49.086;9.284;2023-08-21T12:38:11;35.90;40.60
4312;DHT22;2169;49.086;9.284;2023-08-21T12:40:38;35.90;40.10
4312;DHT22;2169;49.086;9.284;2023-08-21T12:43:05;35.90;40.00
4312;DHT22;2169;49.086;9.284;2023-08-21T12:45:35;35.90;39.90
4312;DHT22;2169;49.086;9.284;2023-08-21T12:48:03;36.00;39.90
4312;DHT22;2169;49.086;9.284;2023-08-21T12:50:32;36.00;39.90
4312;DHT22;2169;49.086;9.284;2023-08-21T12:52:59;36.00;39.60
4312;DHT22;2169;49.086;9.284;2023-08-21T12:55:26;36.00;39.30
4312;DHT22;2169;49.086;9.284;2023-08-21T12:57:53;36.00;39.20
4312;DHT22;2169;49.086;9.284;2023-08-21T13:00:20;36.00;39.10
4312;DHT22;2169;49.086;9.284;2023-08-21T13:02:47;36.10;39.10
4312;DHT22;2169;49.086;9.284;2023-08-21T13:05:14;36.10;39.20
4312;DHT22;2169;49.086;9.284;2023-08-21T13:07:42;36.20;39.90
4312;DHT22;2169;49.086;9.284;2023-08-21T13:10:09;36.20;39.00
4312;DHT22;2169;49.086;9.284;2023-08-21T13:12:37;36.30;38.90
4312;DHT22;2169;49.086;9.284;2023-08-21T13:15:05;36.30;38.60
4312;DHT22;2169;49.086;9.284;2023-08-21T13:17:33;36.40;38.60
4312;DHT22;2169;49.086;9.284;2023-08-21T13:19:59;36.40;38.40
4312;DHT22;2169;49.086;9.284;2023-08-21T13:22:28;36.40;38.00
4312;DHT22;2169;49.086;9.284;2023-08-21T13:24:56;36.40;37.80
4312;DHT22;2169;49.086;9.284;2023-08-21T13:27:23;36.50;37.80
4312;DHT22;2169;49.086;9.284;2023-08-21T13:29:50;36.50;37.80
4312;DHT22;2169;49.086;9.284;2023-08-21T13:32:17;36.50;37.60
4312;DHT22;2169;49.086;9.284;2023-08-21T13:34:44;36.60;37.60
4312;DHT22;2169;49.086;9.284;2023-08-21T13:37:11;36.60;37.60
4312;DHT22;2169;49.086;9.284;2023-08-21T13:39:38;36.60;37.70
4312;DHT22;2169;49.086;9.284;2023-08-21T13:42:06;36.60;37.80
4312;DHT22;2169;49.086;9.284;2023-08-21T13:44:33;36.60;37.90
4312;DHT22;2169;49.086;9.284;2023-08-21T13:47:00;36.60;37.90
4312;DHT22;2169;49.086;9.284;2023-08-21T13:49:27;36.60;37.90
4312;DHT22;2169;49.086;9.284;2023-08-21T13:51:54;36.60;38.00
4312;DHT22;2169;49.086;9.284;2023-08-21T13:54:21;36.70;38.20
4312;DHT22;2169;49.086;9.284;2023-08-21T13:56:48;36.70;38.00
4312;DHT22;2169;49.086;9.284;2023-08-21T13:59:17;36.70;38.00
4312;DHT22;2169;49.086;9.284;2023-08-21T14:01:44;36.80;37.80
4312;DHT22;2169;49.086;9.284;2023-08-21T14:04:11;36.80;37.80
4312;DHT22;2169;49.086;9.284;2023-08-21T14:06:38;36.90;37.60
4312;DHT22;2169;49.086;9.284;2023-08-21T14:09:06;36.90;37.60
4312;DHT22;2169;49.086;9.284;2023-08-21T14:11:33;36.90;37.60
4312;DHT22;2169;49.086;9.284;2023-08-21T14:14:00;36.90;37.50
4312;DHT22;2169;49.086;9.284;2023-08-21T14:16:28;36.90;37.60
4312;DHT22;2169;49.086;9.284;2023-08-21T14:18:55;36.90;37.70
4312;DHT22;2169;49.086;9.284;2023-08-21T14:21:22;36.90;37.80
4312;DHT22;2169;49.086;9.284;2023-08-21T14:23:51;36.80;37.80
4312;DHT22;2169;49.086;9.284;2023-08-21T14:26:18;36.80;38.00
4312;DHT22;2169;49.086;9.284;2023-08-21T14:28:45;36.80;38.00
4312;DHT22;2169;49.086;9.284;2023-08-21T14:31:15;36.70;38.10
4312;DHT22;2169;49.086;9.284;2023-08-21T14:33:47;36.70;38.10
4312;DHT22;2169;49.086;9.284;2023-08-21T14:36:16;36.70;38.30
4312;DHT22;2169;49.086;9.284;2023-08-21T14:38:44;36.60;38.40
4312;DHT22;2169;49.086;9.284;2023-08-21T14:41:15;36.60;38.20
4312;DHT22;2169;49.086;9.284;2023-08-21T14:43:42;36.70;38.20
4312;DHT22;2169;49.086;9.284;2023-08-21T14:46:09;36.70;38.20
4312;DHT22;2169;49.086;9.284;2023-08-21T14:48:36;36.60;38.30
4312;DHT22;2169;49.086;9.284;2023-08-21T14:51:05;36.70;38.40
4312;DHT22;2169;49.086;9.284;2023-08-21T14:53:32;36.70;38.30
4312;DHT22;2169;49.086;9.284;2023-08-21T14:55:59;36.70;38.30
4312;DHT22;2169;49.086;9.284;2023-08-21T14:58:26;36.80;38.30
4312;DHT22;2169;49.086;9.284;2023-08-21T15:00:55;36.90;38.20
4312;DHT22;2169;49.086;9.284;2023-08-21T15:03:25;36.90;37.90
4312;DHT22;2169;49.086;9.284;2023-08-21T15:05:52;36.90;37.80
4312;DHT22;2169;49.086;9.284;2023-08-21T15:08:21;36.90;37.70
4312;DHT22;2169;49.086;9.284;2023-08-21T15:10:48;36.90;37.70
4312;DHT22;2169;49.086;9.284;2023-08-21T15:13:20;36.90;37.70
4312;DHT22;2169;49.086;9.284;2023-08-21T15:15:49;36.90;37.70
4312;DHT22;2169;49.086;9.284;2023-08-21T15:18:16;36.90;37.80
4312;DHT22;2169;49.086;9.284;2023-08-21T15:20:43;36.90;37.80
4312;DHT22;2169;49.086;9.284;2023-08-21T15:23:11;36.90;37.80
4312;DHT22;2169;49.086;9.284;2023-08-21T15:25:40;36.90;38.00
4312;DHT22;2169;49.086;9.284;2023-08-21T15:28:07;36.90;37.70
4312;DHT22;2169;49.086;9.284;2023-08-21T15:30:34;36.90;37.60
4312;DHT22;2169;49.086;9.284;2023-08-21T15:33:01;36.90;37.60
4312;DHT22;2169;49.086;9.284;2023-08-21T15:35:31;37.00;37.70
4312;DHT22;2169;49.086;9.284;2023-08-21T15:38:00;37.00;37.80
4312;DHT22;2169;49.086;9.284;2023-08-21T15:40:28;37.00;37.70
4312;DHT22;2169;49.086;9.284;2023-08-21T15:42:57;37.00;37.70
4312;DHT22;2169;49.086;9.284;2023-08-21T15:45:26;37.00;37.90
4312;DHT22;2169;49.086;9.284;2023-08-21T15:47:54;36.90;38.00
4312;DHT22;2169;49.086;9.284;2023-08-21T15:50:24;36.90;38.20
4312;DHT22;2169;49.086;9.284;2023-08-21T15:52:51;36.80;38.30
4312;DHT22;2169;49.086;9.284;2023-08-21T15:55:18;36.80;38.50
4312;DHT22;2169;49.086;9.284;2023-08-21T15:57:45;36.80;38.50
4312;DHT22;2169;49.086;9.284;2023-08-21T16:00:14;36.70;38.50
4312;DHT22;2169;49.086;9.284;2023-08-21T16:02:41;36.60;38.50
4312;DHT22;2169;49.086;9.284;2023-08-21T16:05:11;36.60;38.80
4312;DHT22;2169;49.086;9.284;2023-08-21T16:07:38;36.60;38.70
4312;DHT22;2169;49.086;9.284;2023-08-21T16:10:08;36.50;38.60
4312;DHT22;2169;49.086;9.284;2023-08-21T16:12:35;36.50;38.70